sensor_id;sensor_type;location;lat;lon;timestamp;P1;durP1;ratioP1;P2;durP2;ratioP2
72557;SDS011;60583;50.094;8.748;2023-04-24T00:01:13;2.80;;;1.08;;
72557;SDS011;60583;50.094;8.748;2023-04-24T00:03:38;2.40;;;0.95;;
72557;SDS011;60583;50.094;8.748;2023-04-24T00:06:04;2.97;;;1.27;;
72557;SDS011;60583;50.094;8.748;2023-04-24T00:08:32;3.35;;;0.93;;
72557;SDS011;60583;50.094;8.748;2023-04-24T00:10:57;3.13;;;1.27;;
72557;SDS011;60583;50.094;8.748;2023-04-24T00:13:23;2.67;;;1.20;;
72557;SDS011;60583;50.094;8.748;2023-04-24T00:15:48;3.08;;;1.08;;
72557;SDS011;60583;50.094;8.748;2023-04-24T00:18:14;3.58;;;1.10;;
72557;SDS011;60583;50.094;8.748;2023-04-24T00:20:39;2.72;;;1.02;;
72557;SDS011;60583;50.094;8.748;2023-04-24T00:23:05;2.53;;;1.05;;
72557;SDS011;60583;50.094;8.748;2023-04-24T00:25:30;2.67;;;0.93;;
72557;SDS011;60583;50.094;8.748;2023-04-24T00:27:56;3.10;;;1.10;;
72557;SDS011;60583;50.094;8.748;2023-04-24T00:30:22;3.40;;;1.23;;
72557;SDS011;60583;50.094;8.748;2023-04-24T00:32:48;4.43;;;1.20;;
72557;SDS011;60583;50.094;8.748;2023-04-24T00:35:13;2.78;;;1.20;;
72557;SDS011;60583;50.094;8.748;2023-04-24T00:37:39;3.20;;;1.25;;
72557;SDS011;60583;50.094;8.748;2023-04-24T00:40:05;2.70;;;1.10;;
72557;SDS011;60583;50.094;8.748;2023-04-24T00:42:31;3.60;;;1.00;;
72557;SDS011;60583;50.094;8.748;2023-04-24T00:44:57;3.80;;;1.00;;
72557;SDS011;60583;50.094;8.748;2023-04-24T00:47:24;2.70;;;0.93;;
72557;SDS011;60583;50.094;8.748;2023-04-24T00:49:50;5.10;;;1.30;;
72557;SDS011;60583;50.094;8.748;2023-04-24T00:52:16;3.17;;;1.00;;
72557;SDS011;60583;50.094;8.748;2023-04-24T00:54:45;3.13;;;1.00;;
72557;SDS011;60583;50.094;8.748;2023-04-24T00:57:12;2.95;;;1.00;;
72557;SDS011;60583;50.094;8.748;2023-04-24T00:59:39;3.65;;;0.80;;
72557;SDS011;60583;50.094;8.748;2023-04-24T01:02:07;2.33;;;0.90;;
72557;SDS011;60583;50.094;8.748;2023-04-24T01:04:34;3.78;;;0.95;;
72557;SDS011;60583;50.094;8.748;2023-04-24T01:06:59;2.50;;;0.88;;
72557;SDS011;60583;50.094;8.748;2023-04-24T01:09:25;2.63;;;1.10;;
72557;SDS011;60583;50.094;8.748;2023-04-24T01:11:51;2.63;;;0.85;;
72557;SDS011;60583;50.094;8.748;2023-04-24T01:14:17;2.28;;;0.93;;
72557;SDS011;60583;50.094;8.748;2023-04-24T01:16:43;1.63;;;0.60;;
72557;SDS011;60583;50.094;8.748;2023-04-24T01:19:09;2.53;;;0.90;;
72557;SDS011;60583;50.094;8.748;2023-04-24T01:21:37;2.80;;;0.98;;
72557;SDS011;60583;50.094;8.748;2023-04-24T01:24:03;2.53;;;1.15;;
72557;SDS011;60583;50.094;8.748;2023-04-24T01:26:30;1.98;;;0.75;;
72557;SDS011;60583;50.094;8.748;2023-04-24T01:28:56;2.72;;;0.90;;
72557;SDS011;60583;50.094;8.748;2023-04-24T01:31:22;2.50;;;0.75;;
72557;SDS011;60583;50.094;8.748;2023-04-24T01:33:47;2.45;;;0.90;;
72557;SDS011;60583;50.094;8.748;2023-04-24T01:36:14;3.17;;;0.90;;
72557;SDS011;60583;50.094;8.748;2023-04-24T01:38:41;3.00;;;1.00;;
72557;SDS011;60583;50.094;8.748;2023-04-24T01:41:07;2.65;;;0.90;;
72557;SDS011;60583;50.094;8.748;2023-04-24T01:43:32;3.88;;;1.20;;
72557;SDS011;60583;50.094;8.748;2023-04-24T01:45:58;2.90;;;1.00;;
72557;SDS011;60583;50.094;8.748;2023-04-24T01:48:23;3.28;;;1.17;;
72557;SDS011;60583;50.094;8.748;2023-04-24T01:50:49;3.97;;;1.00;;
72557;SDS011;60583;50.094;8.748;2023-04-24T01:53:14;2.90;;;1.00;;
72557;SDS011;60583;50.094;8.748;2023-04-24T01:55:40;2.38;;;1.00;;
72557;SDS011;60583;50.094;8.748;2023-04-24T01:58:06;2.83;;;1.00;;
72557;SDS011;60583;50.094;8.748;2023-04-24T02:00:31;3.53;;;1.13;;
72557;SDS011;60583;50.094;8.748;2023-04-24T02:02:57;3.53;;;1.00;;
72557;SDS011;60583;50.094;8.748;2023-04-24T02:05:22;3.70;;;1.00;;
72557;SDS011;60583;50.094;8.748;2023-04-24T02:07:48;3.20;;;1.08;;
72557;SDS011;60583;50.094;8.748;2023-04-24T02:10:13;2.72;;;1.15;;
72557;SDS011;60583;50.094;8.748;2023-04-24T02:12:39;3.67;;;1.00;;
72557;SDS011;60583;50.094;8.748;2023-04-24T02:15:05;4.60;;;1.10;;
72557;SDS011;60583;50.094;8.748;2023-04-24T02:17:31;2.35;;;0.88;;
72557;SDS011;60583;50.094;8.748;2023-04-24T02:19:57;2.38;;;1.02;;
72557;SDS011;60583;50.094;8.748;2023-04-24T02:22:22;2.90;;;0.90;;
72557;SDS011;60583;50.094;8.748;2023-04-24T02:24:47;3.00;;;1.00;;
72557;SDS011;60583;50.094;8.748;2023-04-24T02:27:13;3.78;;;1.10;;
72557;SDS011;60583;50.094;8.748;2023-04-24T02:29:38;2.47;;;0.95;;
72557;SDS011;60583;50.094;8.748;2023-04-24T02:32:04;3.00;;;1.15;;
72557;SDS011;60583;50.094;8.748;2023-04-24T02:34:29;3.72;;;1.05;;
72557;SDS011;60583;50.094;8.748;2023-04-24T02:36:55;2.78;;;1.02;;
72557;SDS011;60583;50.094;8.748;2023-04-24T02:39:21;2.55;;;0.93;;
72557;SDS011;60583;50.094;8.748;2023-04-24T02:41:46;3.42;;;1.15;;
72557;SDS011;60583;50.094;8.748;2023-04-24T02:44:11;2.88;;;1.00;;
72557;SDS011;60583;50.094;8.748;2023-04-24T02:46:37;2.67;;;0.93;;
72557;SDS011;60583;50.094;8.748;2023-04-24T02:49:03;3.05;;;1.17;;
72557;SDS011;60583;50.094;8.748;2023-04-24T02:51:28;3.88;;;1.50;;
72557;SDS011;60583;50.094;8.748;2023-04-24T02:53:54;2.63;;;0.98;;
72557;SDS011;60583;50.094;8.748;2023-04-24T02:56:20;6.30;;;2.78;;
72557;SDS011;60583;50.094;8.748;2023-04-24T02:58:45;4.95;;;1.63;;
72557;SDS011;60583;50.094;8.748;2023-04-24T03:01:10;3.75;;;1.42;;
72557;SDS011;60583;50.094;8.748;2023-04-24T03:03:37;3.92;;;1.20;;
72557;SDS011;60583;50.094;8.748;2023-04-24T03:06:03;4.90;;;1.17;;
72557;SDS011;60583;50.094;8.748;2023-04-24T03:08:31;2.65;;;0.95;;
72557;SDS011;60583;50.094;8.748;2023-04-24T03:10:57;3.75;;;1.13;;
72557;SDS011;60583;50.094;8.748;2023-04-24T03:13:22;4.43;;;1.38;;
72557;SDS011;60583;50.094;8.748;2023-04-24T03:15:48;4.00;;;1.30;;
72557;SDS011;60583;50.094;8.748;2023-04-24T03:18:13;2.90;;;1.20;;
72557;SDS011;60583;50.094;8.748;2023-04-24T03:20:39;4.22;;;1.40;;
72557;SDS011;60583;50.094;8.748;2023-04-24T03:23:04;4.70;;;1.50;;
72557;SDS011;60583;50.094;8.748;2023-04-24T03:25:30;3.47;;;1.25;;
72557;SDS011;60583;50.094;8.748;2023-04-24T03:27:55;3.60;;;1.27;;
72557;SDS011;60583;50.094;8.748;2023-04-24T03:30:20;4.18;;;1.42;;
72557;SDS011;60583;50.094;8.748;2023-04-24T03:32:46;3.25;;;1.40;;
72557;SDS011;60583;50.094;8.748;2023-04-24T03:35:11;3.45;;;1.23;;
72557;SDS011;60583;50.094;8.748;2023-04-24T03:37:37;3.67;;;1.52;;
72557;SDS011;60583;50.094;8.748;2023-04-24T03:40:02;4.65;;;1.35;;
72557;SDS011;60583;50.094;8.748;2023-04-24T03:42:28;3.75;;;1.40;;
72557;SDS011;60583;50.094;8.748;2023-04-24T03:44:54;3.78;;;1.58;;
72557;SDS011;60583;50.094;8.748;2023-04-24T03:47:19;2.78;;;1.13;;
72557;SDS011;60583;50.094;8.748;2023-04-24T03:49:45;5.50;;;1.50;;
72557;SDS011;60583;50.094;8.748;2023-04-24T03:52:10;3.75;;;1.20;;
72557;SDS011;60583;50.094;8.748;2023-04-24T03:54:36;5.93;;;1.40;;
72557;SDS011;60583;50.094;8.748;2023-04-24T03:57:01;3.10;;;1.40;;
72557;SDS011;60583;50.094;8.748;2023-04-24T03:59:28;3.53;;;1.33;;
72557;SDS011;60583;50.094;8.748;2023-04-24T04:01:53;4.05;;;1.52;;
72557;SDS011;60583;50.094;8.748;2023-04-24T04:04:19;3.15;;;1.40;;
72557;SDS011;60583;50.094;8.748;2023-04-24T04:06:44;3.83;;;1.42;;
72557;SDS011;60583;50.094;8.748;2023-04-24T04:09:11;4.28;;;2.08;;
72557;SDS011;60583;50.094;8.748;2023-04-24T04:11:37;3.95;;;1.38;;
72557;SDS011;60583;50.094;8.748;2023-04-24T04:14:03;5.00;;;1.45;;
72557;SDS011;60583;50.094;8.748;2023-04-24T04:16:28;4.32;;;1.60;;
72557;SDS011;60583;50.094;8.748;2023-04-24T04:18:54;3.92;;;1.38;;
72557;SDS011;60583;50.094;8.748;2023-04-24T04:21:20;3.78;;;1.52;;
72557;SDS011;60583;50.094;8.748;2023-04-24T04:23:46;5.53;;;1.60;;
72557;SDS011;60583;50.094;8.748;2023-04-24T04:26:12;5.60;;;1.40;;
72557;SDS011;60583;50.094;8.748;2023-04-24T04:28:38;4.07;;;1.60;;
72557;SDS011;60583;50.094;8.748;2023-04-24T04:31:04;3.97;;;1.50;;
72557;SDS011;60583;50.094;8.748;2023-04-24T04:33:30;2.83;;;1.33;;
72557;SDS011;60583;50.094;8.748;2023-04-24T04:35:56;3.75;;;1.52;;
72557;SDS011;60583;50.094;8.748;2023-04-24T04:38:22;3.70;;;1.40;;
72557;SDS011;60583;50.094;8.748;2023-04-24T04:40:47;3.83;;;1.42;;
72557;SDS011;60583;50.094;8.748;2023-04-24T04:43:13;3.50;;;1.40;;
72557;SDS011;60583;50.094;8.748;2023-04-24T04:45:40;3.60;;;1.50;;
72557;SDS011;60583;50.094;8.748;2023-04-24T04:48:07;3.28;;;1.30;;
72557;SDS011;60583;50.094;8.748;2023-04-24T04:50:34;2.53;;;1.20;;
72557;SDS011;60583;50.094;8.748;2023-04-24T04:53:00;4.47;;;1.70;;
72557;SDS011;60583;50.094;8.748;2023-04-24T04:55:26;3.00;;;1.35;;
72557;SDS011;60583;50.094;8.748;2023-04-24T04:57:51;3.28;;;1.50;;
72557;SDS011;60583;50.094;8.748;2023-04-24T05:00:17;3.22;;;1.48;;
72557;SDS011;60583;50.094;8.748;2023-04-24T05:02:43;3.13;;;1.33;;
72557;SDS011;60583;50.094;8.748;2023-04-24T05:05:08;2.83;;;1.35;;
72557;SDS011;60583;50.094;8.748;2023-04-24T05:07:35;3.20;;;1.48;;
72557;SDS011;60583;50.094;8.748;2023-04-24T05:10:00;3.20;;;1.60;;
72557;SDS011;60583;50.094;8.748;2023-04-24T05:12:26;3.10;;;1.33;;
72557;SDS011;60583;50.094;8.748;2023-04-24T05:14:52;4.80;;;1.70;;
72557;SDS011;60583;50.094;8.748;2023-04-24T05:17:17;4.18;;;1.60;;
72557;SDS011;60583;50.094;8.748;2023-04-24T05:19:43;4.82;;;1.60;;
72557;SDS011;60583;50.094;8.748;2023-04-24T05:22:09;2.72;;;1.55;;
72557;SDS011;60583;50.094;8.748;2023-04-24T05:24:35;3.00;;;1.48;;
72557;SDS011;60583;50.094;8.748;2023-04-24T05:27:04;2.70;;;1.42;;
72557;SDS011;60583;50.094;8.748;2023-04-24T05:29:30;3.30;;;1.75;;
72557;SDS011;60583;50.094;8.748;2023-04-24T05:31:57;3.15;;;1.80;;
72557;SDS011;60583;50.094;8.748;2023-04-24T05:34:23;4.35;;;1.80;;
72557;SDS011;60583;50.094;8.748;2023-04-24T05:36:48;3.03;;;1.42;;
72557;SDS011;60583;50.094;8.748;2023-04-24T05:39:15;3.60;;;1.63;;
72557;SDS011;60583;50.094;8.748;2023-04-24T05:41:41;4.25;;;1.80;;
72557;SDS011;60583;50.094;8.748;2023-04-24T05:44:07;4.55;;;1.92;;
72557;SDS011;60583;50.094;8.748;2023-04-24T05:46:32;2.95;;;1.60;;
72557;SDS011;60583;50.094;8.748;2023-04-24T05:48:58;3.83;;;1.85;;
72557;SDS011;60583;50.094;8.748;2023-04-24T05:51:24;9.52;;;5.45;;
72557;SDS011;60583;50.094;8.748;2023-04-24T05:53:49;4.03;;;1.90;;
72557;SDS011;60583;50.094;8.748;2023-04-24T05:56:15;3.88;;;1.90;;
72557;SDS011;60583;50.094;8.748;2023-04-24T05:58:41;3.50;;;1.83;;
72557;SDS011;60583;50.094;8.748;2023-04-24T06:01:06;4.85;;;2.08;;
72557;SDS011;60583;50.094;8.748;2023-04-24T06:03:32;3.90;;;1.98;;
72557;SDS011;60583;50.094;8.748;2023-04-24T06:05:57;3.40;;;1.90;;
72557;SDS011;60583;50.094;8.748;2023-04-24T06:08:23;4.15;;;2.00;;
72557;SDS011;60583;50.094;8.748;2023-04-24T06:10:49;3.63;;;1.58;;
72557;SDS011;60583;50.094;8.748;2023-04-24T06:13:14;3.33;;;1.70;;
72557;SDS011;60583;50.094;8.748;2023-04-24T06:15:41;3.90;;;1.75;;
72557;SDS011;60583;50.094;8.748;2023-04-24T06:18:06;3.17;;;1.67;;
72557;SDS011;60583;50.094;8.748;2023-04-24T06:20:32;4.28;;;1.77;;
72557;SDS011;60583;50.094;8.748;2023-04-24T06:22:58;3.40;;;1.63;;
72557;SDS011;60583;50.094;8.748;2023-04-24T06:25:27;4.30;;;1.90;;
72557;SDS011;60583;50.094;8.748;2023-04-24T06:27:52;5.07;;;2.25;;
72557;SDS011;60583;50.094;8.748;2023-04-24T06:30:19;3.90;;;1.90;;
72557;SDS011;60583;50.094;8.748;2023-04-24T06:32:45;4.55;;;2.13;;
72557;SDS011;60583;50.094;8.748;2023-04-24T06:35:10;5.60;;;2.28;;
72557;SDS011;60583;50.094;8.748;2023-04-24T06:37:38;4.10;;;2.55;;
72557;SDS011;60583;50.094;8.748;2023-04-24T06:40:05;4.43;;;2.17;;
72557;SDS011;60583;50.094;8.748;2023-04-24T06:42:31;5.70;;;2.55;;
72557;SDS011;60583;50.094;8.748;2023-04-24T06:44:57;4.43;;;2.10;;
72557;SDS011;60583;50.094;8.748;2023-04-24T06:47:22;4.53;;;2.30;;
72557;SDS011;60583;50.094;8.748;2023-04-24T06:49:48;4.05;;;2.30;;
72557;SDS011;60583;50.094;8.748;2023-04-24T06:52:16;4.18;;;2.22;;
72557;SDS011;60583;50.094;8.748;2023-04-24T06:54:41;4.00;;;2.42;;
72557;SDS011;60583;50.094;8.748;2023-04-24T06:57:07;3.70;;;2.30;;
72557;SDS011;60583;50.094;8.748;2023-04-24T06:59:33;4.72;;;2.63;;
72557;SDS011;60583;50.094;8.748;2023-04-24T07:01:58;4.35;;;2.25;;
72557;SDS011;60583;50.094;8.748;2023-04-24T07:04:24;4.57;;;2.10;;
72557;SDS011;60583;50.094;8.748;2023-04-24T07:06:50;5.55;;;2.90;;
72557;SDS011;60583;50.094;8.748;2023-04-24T07:09:16;4.13;;;2.10;;
72557;SDS011;60583;50.094;8.748;2023-04-24T07:11:43;4.22;;;2.10;;
72557;SDS011;60583;50.094;8.748;2023-04-24T07:14:09;6.75;;;2.63;;
72557;SDS011;60583;50.094;8.748;2023-04-24T07:16:35;6.22;;;2.50;;
72557;SDS011;60583;50.094;8.748;2023-04-24T07:19:02;4.38;;;2.40;;
72557;SDS011;60583;50.094;8.748;2023-04-24T07:21:27;4.78;;;2.25;;
72557;SDS011;60583;50.094;8.748;2023-04-24T07:23:53;4.88;;;2.80;;
72557;SDS011;60583;50.094;8.748;2023-04-24T07:26:19;4.65;;;2.40;;
72557;SDS011;60583;50.094;8.748;2023-04-24T07:28:46;3.70;;;2.20;;
72557;SDS011;60583;50.094;8.748;2023-04-24T07:31:11;4.85;;;2.40;;
72557;SDS011;60583;50.094;8.748;2023-04-24T07:33:37;4.47;;;2.30;;
72557;SDS011;60583;50.094;8.748;2023-04-24T07:36:03;3.97;;;2.30;;
72557;SDS011;60583;50.094;8.748;2023-04-24T07:38:31;4.50;;;2.45;;
72557;SDS011;60583;50.094;8.748;2023-04-24T07:40:57;4.45;;;2.15;;
72557;SDS011;60583;50.094;8.748;2023-04-24T07:43:23;3.65;;;2.10;;
72557;SDS011;60583;50.094;8.748;2023-04-24T07:45:51;3.70;;;2.00;;
72557;SDS011;60583;50.094;8.748;2023-04-24T07:48:17;3.83;;;2.08;;
72557;SDS011;60583;50.094;8.748;2023-04-24T07:50:43;3.97;;;2.03;;
72557;SDS011;60583;50.094;8.748;2023-04-24T07:53:09;4.30;;;2.00;;
72557;SDS011;60583;50.094;8.748;2023-04-24T07:55:35;4.82;;;2.03;;
72557;SDS011;60583;50.094;8.748;2023-04-24T07:58:01;4.68;;;2.40;;
72557;SDS011;60583;50.094;8.748;2023-04-24T08:00:26;4.40;;;2.10;;
72557;SDS011;60583;50.094;8.748;2023-04-24T08:02:51;4.13;;;2.03;;
72557;SDS011;60583;50.094;8.748;2023-04-24T08:05:17;4.68;;;2.30;;
72557;SDS011;60583;50.094;8.748;2023-04-24T08:07:42;4.25;;;2.30;;
72557;SDS011;60583;50.094;8.748;2023-04-24T08:10:09;4.70;;;2.20;;
72557;SDS011;60583;50.094;8.748;2023-04-24T08:12:36;4.00;;;2.25;;
72557;SDS011;60583;50.094;8.748;2023-04-24T08:15:02;5.13;;;2.35;;
72557;SDS011;60583;50.094;8.748;2023-04-24T08:17:28;4.00;;;2.35;;
72557;SDS011;60583;50.094;8.748;2023-04-24T08:19:53;4.45;;;2.22;;
72557;SDS011;60583;50.094;8.748;2023-04-24T08:22:26;4.03;;;2.30;;
72557;SDS011;60583;50.094;8.748;2023-04-24T08:24:52;4.53;;;2.40;;
72557;SDS011;60583;50.094;8.748;2023-04-24T08:27:18;5.22;;;2.92;;
72557;SDS011;60583;50.094;8.748;2023-04-24T08:29:43;4.93;;;2.85;;
72557;SDS011;60583;50.094;8.748;2023-04-24T08:32:09;4.88;;;2.58;;
72557;SDS011;60583;50.094;8.748;2023-04-24T08:34:34;4.97;;;2.60;;
72557;SDS011;60583;50.094;8.748;2023-04-24T08:37:00;4.90;;;2.63;;
72557;SDS011;60583;50.094;8.748;2023-04-24T08:39:25;4.68;;;2.15;;
72557;SDS011;60583;50.094;8.748;2023-04-24T08:41:51;5.47;;;2.45;;
72557;SDS011;60583;50.094;8.748;2023-04-24T08:44:18;3.78;;;2.17;;
72557;SDS011;60583;50.094;8.748;2023-04-24T08:46:44;4.47;;;2.53;;
72557;SDS011;60583;50.094;8.748;2023-04-24T08:49:11;5.03;;;2.45;;
72557;SDS011;60583;50.094;8.748;2023-04-24T08:51:39;4.75;;;2.10;;
72557;SDS011;60583;50.094;8.748;2023-04-24T08:54:05;4.60;;;2.40;;
72557;SDS011;60583;50.094;8.748;2023-04-24T08:56:33;3.97;;;2.30;;
72557;SDS011;60583;50.094;8.748;2023-04-24T08:58:59;4.95;;;2.10;;
72557;SDS011;60583;50.094;8.748;2023-04-24T09:01:25;4.55;;;2.00;;
72557;SDS011;60583;50.094;8.748;2023-04-24T09:03:51;5.20;;;1.92;;
72557;SDS011;60583;50.094;8.748;2023-04-24T09:06:19;4.13;;;2.33;;
72557;SDS011;60583;50.094;8.748;2023-04-24T09:08:47;5.07;;;2.40;;
72557;SDS011;60583;50.094;8.748;2023-04-24T09:11:15;4.03;;;2.00;;
72557;SDS011;60583;50.094;8.748;2023-04-24T09:13:41;3.58;;;1.70;;
72557;SDS011;60583;50.094;8.748;2023-04-24T09:16:09;4.65;;;2.30;;
72557;SDS011;60583;50.094;8.748;2023-04-24T09:18:35;4.35;;;2.20;;
72557;SDS011;60583;50.094;8.748;2023-04-24T09:21:01;3.70;;;2.17;;
72557;SDS011;60583;50.094;8.748;2023-04-24T09:23:29;4.28;;;2.10;;
72557;SDS011;60583;50.094;8.748;2023-04-24T09:25:56;3.90;;;2.10;;
72557;SDS011;60583;50.094;8.748;2023-04-24T09:28:30;5.70;;;2.47;;
72557;SDS011;60583;50.094;8.748;2023-04-24T09:33:39;4.72;;;2.22;;
72557;SDS011;60583;50.094;8.748;2023-04-24T09:36:05;4.15;;;1.90;;
72557;SDS011;60583;50.094;8.748;2023-04-24T09:38:34;4.40;;;2.00;;
72557;SDS011;60583;50.094;8.748;2023-04-24T09:43:31;4.95;;;2.10;;
72557;SDS011;60583;50.094;8.748;2023-04-24T09:45:57;3.90;;;2.25;;
72557;SDS011;60583;50.094;8.748;2023-04-24T09:48:30;4.72;;;2.35;;
72557;SDS011;60583;50.094;8.748;2023-04-24T09:50:57;4.80;;;1.88;;
72557;SDS011;60583;50.094;8.748;2023-04-24T09:53:26;3.72;;;1.83;;
72557;SDS011;60583;50.094;8.748;2023-04-24T09:55:52;3.47;;;1.83;;
72557;SDS011;60583;50.094;8.748;2023-04-24T09:58:18;4.38;;;2.28;;
72557;SDS011;60583;50.094;8.748;2023-04-24T10:00:52;3.80;;;1.80;;
72557;SDS011;60583;50.094;8.748;2023-04-24T10:03:18;4.55;;;1.73;;
72557;SDS011;60583;50.094;8.748;2023-04-24T10:05:45;4.03;;;1.63;;
72557;SDS011;60583;50.094;8.748;2023-04-24T10:08:12;4.13;;;1.63;;
72557;SDS011;60583;50.094;8.748;2023-04-24T10:10:42;4.43;;;1.85;;
72557;SDS011;60583;50.094;8.748;2023-04-24T10:13:12;3.30;;;1.73;;
72557;SDS011;60583;50.094;8.748;2023-04-24T10:15:40;4.22;;;1.83;;
72557;SDS011;60583;50.094;8.748;2023-04-24T10:18:07;3.90;;;1.80;;
72557;SDS011;60583;50.094;8.748;2023-04-24T10:20:34;3.70;;;1.60;;
72557;SDS011;60583;50.094;8.748;2023-04-24T10:23:01;3.65;;;1.30;;
72557;SDS011;60583;50.094;8.748;2023-04-24T10:25:29;3.00;;;1.50;;
72557;SDS011;60583;50.094;8.748;2023-04-24T10:27:57;3.50;;;1.80;;
72557;SDS011;60583;50.094;8.748;2023-04-24T10:30:28;3.10;;;1.65;;
72557;SDS011;60583;50.094;8.748;2023-04-24T10:33:01;3.80;;;1.55;;
72557;SDS011;60583;50.094;8.748;2023-04-24T10:35:30;2.92;;;1.45;;
72557;SDS011;60583;50.094;8.748;2023-04-24T10:38:01;5.43;;;1.80;;
72557;SDS011;60583;50.094;8.748;2023-04-24T10:40:31;4.93;;;1.85;;
72557;SDS011;60583;50.094;8.748;2023-04-24T10:42:58;3.38;;;1.50;;
72557;SDS011;60583;50.094;8.748;2023-04-24T10:45:24;3.75;;;1.70;;
72557;SDS011;60583;50.094;8.748;2023-04-24T10:47:56;3.85;;;1.90;;
72557;SDS011;60583;50.094;8.748;2023-04-24T10:50:56;4.05;;;2.03;;
72557;SDS011;60583;50.094;8.748;2023-04-24T10:53:23;3.75;;;1.88;;
72557;SDS011;60583;50.094;8.748;2023-04-24T10:55:56;3.95;;;1.90;;
72557;SDS011;60583;50.094;8.748;2023-04-24T10:58:24;3.15;;;1.65;;
72557;SDS011;60583;50.094;8.748;2023-04-24T11:01:02;4.22;;;1.70;;
72557;SDS011;60583;50.094;8.748;2023-04-24T11:03:29;3.55;;;1.83;;
72557;SDS011;60583;50.094;8.748;2023-04-24T11:06:03;3.90;;;1.67;;
72557;SDS011;60583;50.094;8.748;2023-04-24T11:08:41;3.58;;;1.85;;
72557;SDS011;60583;50.094;8.748;2023-04-24T11:11:12;3.38;;;1.63;;
72557;SDS011;60583;50.094;8.748;2023-04-24T11:16:30;3.33;;;1.40;;
72557;SDS011;60583;50.094;8.748;2023-04-24T11:19:06;3.55;;;1.60;;
72557;SDS011;60583;50.094;8.748;2023-04-24T11:29:44;4.90;;;1.88;;
72557;SDS011;60583;50.094;8.748;2023-04-24T11:34:41;3.85;;;1.63;;
72557;SDS011;60583;50.094;8.748;2023-04-24T11:37:06;3.10;;;1.70;;
72557;SDS011;60583;50.094;8.748;2023-04-24T11:39:36;3.17;;;1.50;;
72557;SDS011;60583;50.094;8.748;2023-04-24T11:42:02;3.17;;;1.60;;
72557;SDS011;60583;50.094;8.748;2023-04-24T11:44:29;3.05;;;1.50;;
72557;SDS011;60583;50.094;8.748;2023-04-24T11:46:55;3.25;;;1.40;;
72557;SDS011;60583;50.094;8.748;2023-04-24T11:49:21;3.40;;;1.55;;
72557;SDS011;60583;50.094;8.748;2023-04-24T11:51:47;3.60;;;1.63;;
72557;SDS011;60583;50.094;8.748;2023-04-24T11:54:12;3.38;;;1.80;;
72557;SDS011;60583;50.094;8.748;2023-04-24T11:56:38;4.15;;;1.50;;
72557;SDS011;60583;50.094;8.748;2023-04-24T11:59:04;3.83;;;1.70;;
72557;SDS011;60583;50.094;8.748;2023-04-24T12:01:29;3.25;;;1.40;;
72557;SDS011;60583;50.094;8.748;2023-04-24T12:03:59;3.90;;;1.60;;
72557;SDS011;60583;50.094;8.748;2023-04-24T12:06:26;4.22;;;1.75;;
72557;SDS011;60583;50.094;8.748;2023-04-24T12:08:52;4.53;;;1.85;;
72557;SDS011;60583;50.094;8.748;2023-04-24T12:11:17;4.55;;;1.85;;
72557;SDS011;60583;50.094;8.748;2023-04-24T12:13:44;3.40;;;1.35;;
72557;SDS011;60583;50.094;8.748;2023-04-24T12:16:10;3.13;;;1.20;;
72557;SDS011;60583;50.094;8.748;2023-04-24T12:18:40;2.55;;;0.80;;
72557;SDS011;60583;50.094;8.748;2023-04-24T12:21:17;1.75;;;0.85;;
72557;SDS011;60583;50.094;8.748;2023-04-24T12:23:47;3.30;;;1.02;;
72557;SDS011;60583;50.094;8.748;2023-04-24T12:26:17;2.72;;;1.02;;
72557;SDS011;60583;50.094;8.748;2023-04-24T12:28:46;2.95;;;1.17;;
72557;SDS011;60583;50.094;8.748;2023-04-24T12:31:14;2.83;;;1.33;;
72557;SDS011;60583;50.094;8.748;2023-04-24T12:33:41;2.70;;;1.27;;
72557;SDS011;60583;50.094;8.748;2023-04-24T12:36:09;5.30;;;1.40;;
72557;SDS011;60583;50.094;8.748;2023-04-24T12:38:35;2.60;;;0.93;;
72557;SDS011;60583;50.094;8.748;2023-04-24T12:41:06;1.90;;;0.77;;
72557;SDS011;60583;50.094;8.748;2023-04-24T12:43:33;2.65;;;1.13;;
72557;SDS011;60583;50.094;8.748;2023-04-24T12:45:59;3.47;;;1.60;;
72557;SDS011;60583;50.094;8.748;2023-04-24T12:48:27;3.65;;;1.40;;
72557;SDS011;60583;50.094;8.748;2023-04-24T12:50:54;4.15;;;2.05;;
72557;SDS011;60583;50.094;8.748;2023-04-24T12:53:20;2.78;;;1.15;;
72557;SDS011;60583;50.094;8.748;2023-04-24T12:55:46;4.47;;;1.38;;
72557;SDS011;60583;50.094;8.748;2023-04-24T12:58:17;2.58;;;1.30;;
72557;SDS011;60583;50.094;8.748;2023-04-24T13:00:44;3.25;;;1.50;;
72557;SDS011;60583;50.094;8.748;2023-04-24T13:03:11;6.30;;;2.13;;
72557;SDS011;60583;50.094;8.748;2023-04-24T13:05:37;3.63;;;1.88;;
72557;SDS011;60583;50.094;8.748;2023-04-24T13:08:02;8.82;;;4.13;;
72557;SDS011;60583;50.094;8.748;2023-04-24T13:10:28;5.88;;;2.33;;
72557;SDS011;60583;50.094;8.748;2023-04-24T13:12:53;3.60;;;1.95;;
72557;SDS011;60583;50.094;8.748;2023-04-24T13:15:19;3.92;;;2.30;;
72557;SDS011;60583;50.094;8.748;2023-04-24T13:17:44;4.30;;;2.28;;
72557;SDS011;60583;50.094;8.748;2023-04-24T13:20:10;6.07;;;2.58;;
72557;SDS011;60583;50.094;8.748;2023-04-24T13:22:35;5.15;;;2.90;;
72557;SDS011;60583;50.094;8.748;2023-04-24T13:25:01;5.68;;;2.80;;
72557;SDS011;60583;50.094;8.748;2023-04-24T13:27:28;4.50;;;2.58;;
72557;SDS011;60583;50.094;8.748;2023-04-24T13:29:54;4.57;;;2.80;;
72557;SDS011;60583;50.094;8.748;2023-04-24T13:32:19;5.68;;;2.47;;
72557;SDS011;60583;50.094;8.748;2023-04-24T13:34:45;5.20;;;2.25;;
72557;SDS011;60583;50.094;8.748;2023-04-24T13:37:11;5.88;;;2.92;;
72557;SDS011;60583;50.094;8.748;2023-04-24T13:39:36;4.90;;;2.50;;
72557;SDS011;60583;50.094;8.748;2023-04-24T13:42:02;6.53;;;3.17;;
72557;SDS011;60583;50.094;8.748;2023-04-24T13:44:28;4.82;;;2.42;;
72557;SDS011;60583;50.094;8.748;2023-04-24T13:46:54;5.20;;;2.50;;
72557;SDS011;60583;50.094;8.748;2023-04-24T13:49:22;4.40;;;2.35;;
72557;SDS011;60583;50.094;8.748;2023-04-24T13:51:49;6.38;;;2.60;;
72557;SDS011;60583;50.094;8.748;2023-04-24T13:54:16;4.40;;;2.38;;
72557;SDS011;60583;50.094;8.748;2023-04-24T13:56:41;4.63;;;2.38;;
72557;SDS011;60583;50.094;8.748;2023-04-24T13:59:07;4.55;;;2.50;;
72557;SDS011;60583;50.094;8.748;2023-04-24T14:01:33;6.47;;;2.65;;
72557;SDS011;60583;50.094;8.748;2023-04-24T14:03:59;5.78;;;3.00;;
72557;SDS011;60583;50.094;8.748;2023-04-24T14:06:25;5.50;;;2.50;;
72557;SDS011;60583;50.094;8.748;2023-04-24T14:08:50;4.32;;;2.40;;
72557;SDS011;60583;50.094;8.748;2023-04-24T14:11:16;4.03;;;2.22;;
72557;SDS011;60583;50.094;8.748;2023-04-24T14:13:42;4.65;;;2.58;;
72557;SDS011;60583;50.094;8.748;2023-04-24T14:16:09;5.35;;;2.70;;
72557;SDS011;60583;50.094;8.748;2023-04-24T14:18:35;5.50;;;3.08;;
72557;SDS011;60583;50.094;8.748;2023-04-24T14:21:01;5.43;;;2.67;;
72557;SDS011;60583;50.094;8.748;2023-04-24T14:23:30;5.10;;;2.50;;
72557;SDS011;60583;50.094;8.748;2023-04-24T14:25:56;4.93;;;3.00;;
72557;SDS011;60583;50.094;8.748;2023-04-24T14:28:23;5.13;;;2.75;;
72557;SDS011;60583;50.094;8.748;2023-04-24T14:30:49;4.97;;;2.63;;
72557;SDS011;60583;50.094;8.748;2023-04-24T14:33:15;4.13;;;2.50;;
72557;SDS011;60583;50.094;8.748;2023-04-24T14:35:41;4.93;;;2.65;;
72557;SDS011;60583;50.094;8.748;2023-04-24T14:38:10;5.32;;;2.50;;
72557;SDS011;60583;50.094;8.748;2023-04-24T14:40:35;5.90;;;2.92;;
72557;SDS011;60583;50.094;8.748;2023-04-24T14:43:01;5.78;;;3.13;;
72557;SDS011;60583;50.094;8.748;2023-04-24T14:45:27;8.60;;;4.13;;
72557;SDS011;60583;50.094;8.748;2023-04-24T14:47:53;6.78;;;4.25;;
72557;SDS011;60583;50.094;8.748;2023-04-24T14:50:19;7.07;;;3.35;;
72557;SDS011;60583;50.094;8.748;2023-04-24T14:52:45;5.68;;;3.17;;
72557;SDS011;60583;50.094;8.748;2023-04-24T14:55:11;6.18;;;2.63;;
72557;SDS011;60583;50.094;8.748;2023-04-24T14:57:37;7.18;;;2.63;;
72557;SDS011;60583;50.094;8.748;2023-04-24T15:00:03;5.45;;;2.60;;
72557;SDS011;60583;50.094;8.748;2023-04-24T15:02:32;4.38;;;2.65;;